Data for 12/26/2016

Time Sea-Level Adjusted Pressure Absolute Pressure Temperature Relative Humidity Dew Point   
(mb) (inHg) (mb) (inHg) (C) (F) (%) (C) (F)
00:05 1017 30.03 846 24.98 -12 10.3 83 -14.4 6.1
00:10 1017 30.03 846 24.98 -12.1 10.3 83 -14.4 6.1
00:15 1017 30.03 846 24.98 -12.1 10.3 83 -14.4 6
00:20 1017 30.03 846 24.98 -12.1 10.3 83 -14.4 6
00:25 1017 30.03 846 24.98 -12 10.3 83 -14.4 6.2
00:30 1017 30.03 846 24.98 -12 10.3 83 -14.3 6.2
00:35 1017 30.03 846 24.98 -12 10.4 83 -14.3 6.3
00:40 1017 30.03 846 24.98 -12 10.4 83 -14.3 6.3
00:45 1017 30.03 846 24.98 -12 10.4 83 -14.3 6.3
00:50 1017 30.03 846 24.98 -12 10.5 83 -14.3 6.3
00:55 1017 30.03 846 24.98 -12 10.5 83 -14.3 6.2
01:00 1017 30.03 846 24.98 -11.9 10.5 83 -14.3 6.3
01:05 1017 30.03 846 24.98 -11.9 10.5 83 -14.3 6.2
01:10 1017 30.03 846 24.98 -12 10.5 83 -14.3 6.3
01:15 1017 30.03 846 24.98 -12 10.4 83 -14.2 6.4
01:20 1017 30.03 846 24.98 -11.9 10.5 83 -14.3 6.3
01:25 1017 30.03 846 24.98 -12 10.4 83 -14.4 6.1
01:30 1017 30.03 846 24.98 -12.1 10.2 83 -14.5 6
01:35 1017 30.03 846 24.98 -12.2 10 84 -14.4 6.1
01:40 1017 30.03 846 24.98 -12.1 10.2 83 -14.4 6.1
01:45 1017 30.03 846 24.98 -12 10.4 83 -14.3 6.2
01:50 1017 30.03 846 24.98 -12.1 10.3 83 -14.4 6
01:55 1017 30.03 846 24.98 -12.1 10.2 84 -14.4 6.2
02:00 1017 30.03 846 24.98 -12.1 10.2 84 -14.3 6.2
02:05 1017 30.03 846 24.98 -12 10.4 84 -14.2 6.4
02:10 1017 30.03 846 24.98 -11.9 10.5 84 -14.2 6.5
02:15 1017 30.03 847 25.01 -11.9 10.6 83 -14.2 6.4
02:20 1017 30.03 847 25.01 -11.7 11 82 -14.1 6.6
02:25 1017 30.03 847 25.01 -11.6 11.1 82 -14.1 6.5
02:30 1018 30.06 847 25.01 -11.7 10.9 82 -14.2 6.4
02:35 1018 30.06 847 25.01 -11.8 10.8 83 -14.1 6.5
02:40 1018 30.06 847 25.01 -11.7 10.9 83 -14 6.8
02:45 1018 30.06 847 25.01 -11.6 11.1 82 -14.2 6.5
02:50 1018 30.06 847 25.01 -11.8 10.8 82 -14.2 6.4
02:55 1018 30.06 847 25.01 -11.8 10.8 84 -13.9 7
03:00 1018 30.06 847 25.01 -11.4 11.6 82 -13.8 7.1
03:05 1018 30.06 847 25.01 -10.9 12.3 80 -13.7 7.3
03:10 1018 30.06 847 25.01 -11.1 11.9 82 -13.6 7.5
03:15 1018 30.06 847 25.01 -11 12.3 81 -13.6 7.5
03:20 1018 30.06 847 25.01 -10.9 12.4 81 -13.5 7.7
03:25 1018 30.06 847 25.01 -11 12.3 82 -13.5 7.6
03:30 1018 30.06 847 25.01 -10.9 12.3 82 -13.4 7.9
03:35 1018 30.06 847 25.01 -10.7 12.8 80 -13.5 7.7
03:40 1018 30.06 847 25.01 -10.7 12.7 79 -13.6 7.5
03:45 1018 30.06 847 25.01 -10.9 12.4 80 -13.7 7.3
03:50 1018 30.06 847 25.01 -11.1 11.9 82 -13.6 7.6
03:55 1018 30.06 847 25.01 -11 12.3 81 -13.6 7.5
04:00 1018 30.06 847 25.01 -10.7 12.7 80 -13.5 7.7
04:05 1018 30.06 847 25.01 -10.6 13 79 -13.5 7.8
04:10 1018 30.06 847 25.01 -10.6 12.9 79 -13.6 7.5
04:15 1018 30.06 847 25.01 -10.8 12.6 79 -13.7 7.3
04:20 1018 30.06 847 25.01 -11 12.2 82 -13.6 7.6
04:25 1018 30.06 847 25.01 -10.8 12.5 80 -13.6 7.5
04:30 1018 30.06 847 25.01 -10.8 12.5 81 -13.5 7.6
04:35 1018 30.06 847 25.01 -10.8 12.7 79 -13.7 7.4
04:40 1018 30.06 847 25.01 -10.9 12.3 80 -13.7 7.4
04:45 1018 30.06 847 25.01 -11.1 12.1 82 -13.6 7.5
04:50 1018 30.06 847 25.01 -10.7 12.8 80 -13.5 7.7
04:55 1018 30.06 847 25.01 -10.3 13.5 78 -13.3 8
05:00 1018 30.06 847 25.01 -10.2 13.6 78 -13.4 7.9
05:05 1018 30.06 848 25.04 -10.6 13 79 -13.5 7.7
05:10 1018 30.06 848 25.04 -10.6 12.9 79 -13.6 7.6
05:15 1018 30.06 848 25.04 -10.6 12.8 79 -13.6 7.5
05:20 1018 30.06 848 25.04 -10.8 12.5 80 -13.6 7.5
05:25 1018 30.06 848 25.04 -10.7 12.8 79 -13.6 7.6
05:30 1018 30.06 848 25.04 -10.8 12.6 81 -13.5 7.8
05:35 1018 30.06 848 25.04 -11.2 11.9 82 -13.7 7.3
05:40 1018 30.06 848 25.04 -11.1 12 82 -13.5 7.6
05:45 1018 30.06 848 25.04 -11.1 12 83 -13.5 7.8
05:50 1018 30.06 848 25.04 -10.9 12.3 80 -13.8 7.2
05:55 1018 30.06 848 25.04 -11.1 12 82 -13.6 7.5
06:00 1018 30.06 848 25.04 -10.9 12.3 80 -13.7 7.3
06:05 1018 30.06 848 25.04 -11 12.3 81 -13.7 7.4
06:10 1018 30.06 848 25.04 -11.1 12 83 -13.5 7.7
06:15 1018 30.06 847 25.01 -10.9 12.5 80 -13.6 7.4
06:20 1018 30.06 847 25.01 -11.1 12 83 -13.4 7.8
06:25 1018 30.06 847 25.01 -11 12.1 80 -13.9 7
06:30 1018 30.06 847 25.01 -11.2 11.8 80 -14 6.8
06:35 1018 30.06 848 25.04 -11.4 11.5 82 -13.9 6.9
06:40 1018 30.06 848 25.04 -11 12.3 80 -13.8 7.1
06:45 1018 30.06 848 25.04 -10.8 12.5 81 -13.5 7.8
06:50 1018 30.06 848 25.04 -10.7 12.8 80 -13.5 7.6
06:55 1018 30.06 848 25.04 -10.7 12.7 77 -13.9 6.9
07:00 1019 30.09 848 25.04 -11.4 11.5 83 -13.8 7.2
07:05 1019 30.09 848 25.04 -11.4 11.6 80 -14.2 6.4
07:10 1019 30.09 848 25.04 -11.5 11.3 80 -14.3 6.3
07:15 1019 30.09 848 25.04 -11.5 11.3 80 -14.3 6.3
07:20 1019 30.09 848 25.04 -11.1 12 78 -14.3 6.3
07:25 1019 30.09 848 25.04 -11.3 11.6 76 -14.8 5.3
07:30 1019 30.09 848 25.04 -11.6 11.1 79 -14.6 5.8
07:35 1019 30.09 848 25.04 -11 12.2 77 -14.3 6.2
07:40 1019 30.09 848 25.04 -10.7 12.7 75 -14.3 6.2
07:45 1019 30.09 848 25.04 -11 12.2 74 -14.8 5.4
07:50 1019 30.09 848 25.04 -11.9 10.6 79 -14.8 5.3
07:55 1019 30.09 848 25.04 -12.1 10.2 78 -15.2 4.6
08:00 1019 30.09 848 25.04 -12.3 9.9 78 -15.4 4.3
08:05 1019 30.09 848 25.04 -12.6 9.3 77 -15.8 3.6
08:10 1019 30.09 848 25.04 -12.6 9.3 79 -15.6 4
08:15 1019 30.09 848 25.04 -12.1 10.3 79 -15.1 4.9
08:20 1019 30.09 848 25.04 -11.8 10.7 78 -14.9 5.2
08:25 1019 30.09 848 25.04 -11.9 10.6 77 -15.1 4.8
08:30 1019 30.09 848 25.04 -11.7 10.9 75 -15.4 4.3
08:35 1019 30.09 848 25.04 -11.9 10.6 78 -15 5
08:40 1019 30.09 849 25.07 -11.8 10.7 77 -15.1 4.8
08:45 1019 30.09 849 25.07 -11.9 10.5 76 -15.3 4.4
08:50 1019 30.09 849 25.07 -11.8 10.8 77 -15.1 4.9
08:55 1019 30.09 849 25.07 -11.4 11.6 75 -14.9 5.1
09:00 1020 30.12 849 25.07 -11.3 11.8 78 -14.4 6
09:05 1020 30.12 849 25.07 -11 12.3 74 -14.7 5.5
09:10 1020 30.12 849 25.07 -10.6 13 71 -14.8 5.4
09:15 1020 30.12 849 25.07 -10.1 13.8 71 -14.5 6
09:20 1020 30.12 849 25.07 -9.5 14.8 68 -14.4 6
09:25 1020 30.12 849 25.07 -8.9 16 65 -14.2 6.4
09:30 1020 30.12 849 25.07 -9.1 15.7 67 -14.2 6.4
09:35 1020 30.12 849 25.07 -9.6 14.8 68 -14.5 5.9
09:40 1020 30.12 849 25.07 -9.5 14.8 68 -14.5 5.9
09:45 1020 30.12 849 25.07 -9.7 14.5 68 -14.7 5.6
09:50 1020 30.12 850 25.1 -9.5 15 66 -14.6 5.6
09:55 1020 30.12 850 25.1 -9.5 14.9 68 -14.3 6.3
10:00 1020 30.12 850 25.1 -8.4 16.9 64 -14 6.7
10:05 1021 30.15 850 25.1 -8.7 16.4 67 -13.8 7.1
10:10 1021 30.15 850 25.1 -8.1 17.5 63 -13.9 7.1
10:15 1021 30.15 850 25.1 -7.4 18.8 63 -13.3 8
10:20 1021 30.15 850 25.1 -6.8 19.7 61 -13.3 8.1
10:25 1021 30.15 850 25.1 -6.4 20.4 59 -13.2 8.2
10:30 1021 30.15 850 25.1 -6.7 19.9 60 -13.2 8.2
10:35 1021 30.15 850 25.1 -6.9 19.5 61 -13.4 8
10:40 1021 30.15 851 25.13 -6.9 19.6 62 -13.1 8.5
10:45 1021 30.15 851 25.13 -7.1 19.3 61 -13.3 8.1
10:50 1021 30.15 851 25.13 -6.9 19.6 60 -13.4 7.9
10:55 1022 30.18 851 25.13 -7.1 19.2 62 -13.3 8.1
11:00 1022 30.18 851 25.13 -8 17.5 64 -13.6 7.4
11:05 1021 30.15 851 25.13 -7.7 18.1 63 -13.6 7.6
11:10 1021 30.15 851 25.13 -7.9 17.8 64 -13.5 7.7
11:15 1021 30.15 851 25.13 -8.4 16.9 66 -13.7 7.3
11:20 1021 30.15 850 25.1 -8.7 16.3 67 -13.8 7.2
11:25 1021 30.15 850 25.1 -8.4 17 64 -14 6.8
11:30 1021 30.15 850 25.1 -7.6 18.2 62 -13.7 7.4
11:35 1021 30.15 850 25.1 -7.1 19.2 61 -13.4 7.8
11:40 1021 30.15 850 25.1 -6.6 20.1 61 -13 8.6
11:45 1021 30.15 850 25.1 -5.9 21.3 55 -13.6 7.6
11:50 1021 30.15 850 25.1 -5.4 22.3 55 -13 8.5
11:55 1021 30.15 850 25.1 -5.4 22.3 55 -13.2 8.3
12:00 1021 30.15 850 25.1 -5.2 22.6 56 -12.8 9
12:05 1021 30.15 850 25.1 -4.9 23.1 53 -13.1 8.4
12:10 1021 30.15 850 25.1 -4.1 24.5 52 -12.7 9.1
12:15 1021 30.15 850 25.1 -4.1 24.6 52 -12.5 9.5
12:20 1021 30.15 850 25.1 -4.1 24.6 51 -12.9 8.9
12:25 1021 30.15 850 25.1 -3.9 25.1 53 -12 10.4
12:30 1021 30.15 850 25.1 -4.8 23.5 54 -12.7 9.1
12:35 1021 30.15 850 25.1 -4.6 23.6 52 -13 8.5
12:40 1020 30.12 850 25.1 -3.7 25.3 49 -13.1 8.5
12:45 1020 30.12 850 25.1 -4.6 23.8 53 -12.8 9
12:50 1020 30.12 850 25.1 -4.9 23.1 53 -13.1 8.4
12:55 1020 30.12 850 25.1 -3.9 24.9 51 -12.7 9.2
13:00 1020 30.12 850 25.1 -3.7 25.3 50 -12.7 9.1
13:05 1020 30.12 850 25.1 -3.6 25.6 48 -13 8.6
13:10 1020 30.12 850 25.1 -3 26.7 47 -12.7 9.1
13:15 1020 30.12 850 25.1 -2.3 27.8 44 -13 8.5
13:20 1020 30.12 850 25.1 -2 28.4 43 -13 8.6
13:25 1020 30.12 850 25.1 -2.6 27.3 47 -12.5 9.6
13:30 1020 30.12 850 25.1 -2.8 27 47 -12.6 9.2
13:35 1021 30.15 850 25.1 -2.4 27.7 46 -12.6 9.4
13:40 1021 30.15 850 25.1 -2.3 27.8 44 -13 8.6
13:45 1021 30.15 850 25.1 -2.2 28.1 43 -13.1 8.5
13:50 1020 30.12 850 25.1 -1.9 28.6 42 -13.2 8.2
13:55 1021 30.15 850 25.1 -2.2 28 44 -12.8 9
14:00 1021 30.15 850 25.1 -2.2 28 45 -12.7 9.2
14:05 1021 30.15 850 25.1 -2.6 27.4 46 -12.8 9
14:10 1021 30.15 850 25.1 -2.7 27.1 46 -12.7 9.1
14:15 1021 30.15 850 25.1 -3.5 25.7 49 -12.7 9.2
14:20 1021 30.15 850 25.1 -3.7 25.4 49 -12.9 8.7
14:25 1021 30.15 850 25.1 -3.2 26.2 49 -12.6 9.3
14:30 1021 30.15 850 25.1 -2.9 26.8 47 -12.8 9
14:35 1021 30.15 850 25.1 -2.9 26.8 46 -12.9 8.7
14:40 1021 30.15 850 25.1 -3.1 26.4 48 -12.7 9.2
14:45 1021 30.15 850 25.1 -3.7 25.3 50 -12.6 9.3
14:50 1021 30.15 850 25.1 -4.9 23.1 53 -13.1 8.4
14:55 1021 30.15 850 25.1 -4.3 24.3 50 -13.3 8
15:00 1021 30.15 850 25.1 -3.9 25 50 -12.9 8.8
15:05 1021 30.15 850 25.1 -3.8 25.2 48 -13.2 8.3
15:10 1021 30.15 850 25.1 -4.3 24.2 51 -12.9 8.8
15:15 1021 30.15 850 25.1 -5.4 22.3 53 -13.5 7.6
15:20 1021 30.15 850 25.1 -4.7 23.6 50 -13.6 7.4
15:25 1021 30.15 850 25.1 -4.4 24.1 50 -13.3 8
15:30 1021 30.15 850 25.1 -4.1 24.6 48 -13.5 7.7
15:35 1021 30.15 850 25.1 -4 24.8 47 -13.6 7.4
15:40 1021 30.15 850 25.1 -4.1 24.7 47 -13.7 7.3
15:45 1021 30.15 850 25.1 -5 23.1 51 -13.7 7.4
15:50 1021 30.15 850 25.1 -5.8 21.5 53 -14 6.8
15:55 1021 30.15 850 25.1 -6 21.3 53 -14.2 6.5
16:00 1021 30.15 850 25.1 -6 21.2 53 -14.1 6.6
16:05 1021 30.15 850 25.1 -5.5 22.1 53 -13.7 7.4
16:10 1021 30.15 850 25.1 -6 21.3 55 -13.6 7.5
16:15 1021 30.15 850 25.1 -6.4 20.4 59 -13.1 8.4
16:20 1021 30.15 850 25.1 -6.3 20.6 58 -13.2 8.2
16:25 1021 30.15 850 25.1 -6.5 20.3 59 -13.3 8
16:30 1021 30.15 850 25.1 -6.4 20.4 60 -13 8.5
16:35 1021 30.15 850 25.1 -6.4 20.5 58 -13.3 8.1
16:40 1021 30.15 850 25.1 -6.3 20.7 59 -13.1 8.5
16:45 1021 30.15 850 25.1 -6.5 20.4 55 -14 6.8
16:50 1021 30.15 850 25.1 -6.3 20.7 53 -14.3 6.2
16:55 1021 30.15 850 25.1 -6.5 20.3 63 -12.5 9.5
17:00 1021 30.15 850 25.1 -7.9 17.7 64 -13.7 7.4
17:05 1021 30.15 850 25.1 -8 17.7 65 -13.5 7.7
17:10 1021 30.15 850 25.1 -8.1 17.3 65 -13.6 7.6
17:15 1021 30.15 850 25.1 -8.5 16.7 67 -13.5 7.6
17:20 1021 30.15 850 25.1 -8.8 16.2 69 -13.4 7.8
17:25 1021 30.15 850 25.1 -9.1 15.7 65 -14.4 6.1
17:30 1021 30.15 850 25.1 -9.3 15.3 63 -15.1 4.8
17:35 1021 30.15 850 25.1 -8.9 16 63 -14.7 5.6
17:40 1021 30.15 850 25.1 -8.6 16.5 61 -14.9 5.1
17:45 1021 30.15 850 25.1 -9 15.9 62 -15 5
17:50 1021 30.15 850 25.1 -9.1 15.5 60 -15.5 4.1
17:55 1021 30.15 850 25.1 -8.9 16.1 61 -15 4.9
18:00 1021 30.15 850 25.1 -8.7 16.3 59 -15.4 4.2
18:05 1021 30.15 850 25.1 -8.5 16.6 61 -14.8 5.3
18:10 1021 30.15 850 25.1 -8.7 16.3 60 -15.2 4.6
18:15 1021 30.15 850 25.1 -9.2 15.4 65 -14.7 5.5
18:20 1021 30.15 850 25.1 -9.4 15 61 -15.5 4
18:25 1021 30.15 850 25.1 -8.9 16 59 -15.5 4.1
18:30 1021 30.15 850 25.1 -9.2 15.5 64 -14.8 5.4
18:35 1021 30.15 850 25.1 -10.4 13.3 70 -14.8 5.3
18:40 1021 30.15 850 25.1 -10.4 13.3 69 -15 5
18:45 1021 30.15 851 25.13 -10.5 13.1 75 -14.1 6.6
18:50 1021 30.15 851 25.13 -10.6 12.9 75 -14.2 6.4
18:55 1021 30.15 851 25.13 -10.6 13 78 -13.7 7.3
19:00 1021 30.15 851 25.13 -10.3 13.5 75 -13.9 7
19:05 1021 30.15 851 25.13 -9.8 14.3 71 -14.2 6.4
19:10 1022 30.18 851 25.13 -9.4 15.2 68 -14.2 6.5
19:15 1022 30.18 851 25.13 -9.4 15.1 68 -14.2 6.4
19:20 1022 30.18 851 25.13 -9.7 14.5 68 -14.5 5.9
19:25 1022 30.18 851 25.13 -9.3 15.2 65 -14.8 5.3
19:30 1022 30.18 851 25.13 -9 15.9 64 -14.5 5.8
19:35 1022 30.18 851 25.13 -8.6 16.5 62 -14.7 5.6
19:40 1022 30.18 851 25.13 -9.1 15.7 67 -14.1 6.7
19:45 1022 30.18 851 25.13 -9.5 15 67 -14.5 5.9
19:50 1022 30.18 851 25.13 -9.7 14.6 70 -14.1 6.7
19:55 1022 30.18 851 25.13 -9.5 14.8 63 -15.4 4.3
20:00 1022 30.18 851 25.13 -9 15.8 65 -14.4 6.1
20:05 1022 30.18 851 25.13 -9.7 14.6 66 -14.9 5.2
20:10 1021 30.15 851 25.13 -9.5 15 62 -15.5 4.1
20:15 1021 30.15 851 25.13 -9.3 15.2 67 -14.4 6.2
20:20 1021 30.15 851 25.13 -9.4 15 64 -15.1 4.8
20:25 1021 30.15 850 25.1 -8.9 16 63 -14.7 5.5
20:30 1021 30.15 850 25.1 -9.7 14.6 67 -14.7 5.6
20:35 1021 30.15 850 25.1 -9.8 14.4 70 -14.3 6.2
20:40 1021 30.15 850 25.1 -10 14 67 -15 5
20:45 1021 30.15 850 25.1 -9.9 14.1 66 -15.1 4.7
20:50 1021 30.15 850 25.1 -9.9 14.2 66 -15.1 4.9
20:55 1021 30.15 850 25.1 -9.7 14.6 65 -15.1 4.8
21:00 1021 30.15 850 25.1 -9.9 14.1 67 -14.9 5.2
21:05 1021 30.15 850 25.1 -10.3 13.4 67 -15.4 4.4
21:10 1021 30.15 850 25.1 -10 14.1 63 -15.7 3.8
21:15 1021 30.15 850 25.1 -9.7 14.5 65 -15.1 4.8
21:20 1021 30.15 850 25.1 -10.5 13 67 -15.6 3.9
21:25 1021 30.15 850 25.1 -10.7 12.8 65 -16 3.2
21:30 1021 30.15 850 25.1 -10.8 12.6 67 -15.8 3.5
21:35 1021 30.15 850 25.1 -11.4 11.4 68 -16.3 2.6
21:40 1021 30.15 850 25.1 -11.6 11.1 68 -16.4 2.5
21:45 1021 30.15 850 25.1 -11.1 12.1 65 -16.4 2.5
21:50 1021 30.15 850 25.1 -11.5 11.3 69 -16.1 3
21:55 1021 30.15 850 25.1 -11.4 11.5 66 -16.5 2.3
22:00 1021 30.15 850 25.1 -11 12.3 65 -16.4 2.5
22:05 1021 30.15 850 25.1 -11 12.3 66 -16.2 2.9
22:10 1021 30.15 850 25.1 -10.5 13 67 -15.5 4.1
22:15 1021 30.15 850 25.1 -10.7 12.8 66 -15.8 3.5
22:20 1021 30.15 850 25.1 -10.9 12.4 67 -15.9 3.3
22:25 1021 30.15 850 25.1 -11.1 11.9 68 -15.9 3.3
22:30 1021 30.15 850 25.1 -11.7 10.9 70 -16.2 2.8
22:35 1021 30.15 850 25.1 -11.6 11.1 71 -15.9 3.4
22:40 1021 30.15 850 25.1 -11.4 11.4 70 -15.9 3.4
22:45 1021 30.15 850 25.1 -11.7 11 70 -16 3.1
22:50 1021 30.15 850 25.1 -11.9 10.6 72 -16 3.2
22:55 1021 30.15 850 25.1 -12 10.4 73 -15.9 3.4
23:00 1021 30.15 850 25.1 -12.1 10.2 73 -16 3.1
23:05 1021 30.15 850 25.1 -12.2 10.1 74 -15.9 3.4
23:10 1021 30.15 850 25.1 -12 10.4 74 -15.7 3.8
23:15 1021 30.15 850 25.1 -11.8 10.8 74 -15.5 4.2
23:20 1021 30.15 850 25.1 -11.3 11.7 69 -15.9 3.4
23:25 1020 30.12 850 25.1 -11.4 11.4 70 -15.9 3.3
23:30 1021 30.15 850 25.1 -11.7 10.9 71 -16 3.3
23:35 1021 30.15 850 25.1 -12 10.4 72 -16.1 3
23:40 1020 30.12 850 25.1 -12.4 9.7 73 -16.2 2.8
23:45 1020 30.12 850 25.1 -12.5 9.5 74 -16.1 3
23:50 1021 30.15 850 25.1 -12.8 9 75 -16.3 2.6
23:55 1021 30.15 850 25.1 -12.7 9.1 75 -16.3 2.6
24:00 1020 30.12 850 25.1 -12.2 10.1 70 -16.6 2.1